Time;durP1;ratioP1;P1;durP2;ratioP2;P2;SDS_P1;SDS_P2;PMS_P1;PMS_P2;Temp;Humidity;BMP_temperature;BMP_pressure;BME280_temperature;BME280_humidity;BME280_pressure;Samples;Min_cycle;Max_cycle;Signal;HPM_P1;HPM_P2
2021/05/24 00:00:37;;;;;;;9.10;4.90;;;;;;;14.50;73.57;96678.88;5117184;28;20091;-48
2021/05/24 00:03:03;;;;;;;8.20;4.88;;;;;;;14.52;73.25;96678.81;5117264;28;20027;-45
2021/05/24 00:05:31;;;;;;;6.18;4.55;;;;;;;14.52;73.08;96666.50;5117507;28;20081;-46
2021/05/24 00:07:58;;;;;;;5.63;4.97;;;;;;;14.45;73.66;96661.63;5117315;28;20050;-49
2021/05/24 00:10:30;;;;;;;8.10;4.95;;;;;;;14.36;74.33;96665.59;5117363;28;20020;-45
2021/05/24 00:13:01;;;;;;;7.28;4.85;;;;;;;14.43;73.80;96666.13;5116744;28;20369;-45
2021/05/24 00:15:48;;;;;;;8.10;4.78;;;;;;;14.45;73.54;96659.00;5116848;28;20086;-53
2021/05/24 00:18:15;;;;;;;5.80;4.65;;;;;;;14.45;73.31;96661.63;5117217;28;20036;-48
2021/05/24 00:20:52;;;;;;;5.93;4.35;;;;;;;14.48;73.29;96672.00;5117241;28;20024;-50
2021/05/24 00:23:18;;;;;;;4.93;4.10;;;;;;;14.45;73.02;96666.91;5117315;28;20354;-46
2021/05/24 00:25:44;;;;;;;5.97;4.32;;;;;;;14.45;72.82;96674.78;5116847;28;20019;-44
2021/05/24 00:28:14;;;;;;;4.75;4.30;;;;;;;14.37;72.35;96668.16;5117203;28;20380;-48
2021/05/24 00:30:44;;;;;;;5.03;4.55;;;;;;;14.32;73.09;96662.25;5116972;28;20028;-48
2021/05/24 00:33:10;;;;;;;8.10;5.80;;;;;;;14.33;74.13;96656.06;5116792;28;20415;-48
2021/05/24 00:35:36;;;;;;;8.55;4.90;;;;;;;14.27;74.18;96664.28;5116536;28;20059;-50
2021/05/24 00:38:03;;;;;;;5.68;5.13;;;;;;;14.26;73.72;96668.69;5117049;28;20012;-50
2021/05/24 00:40:30;;;;;;;6.40;4.72;;;;;;;14.24;73.03;96667.06;5117143;28;20059;-55
2021/05/24 00:42:56;;;;;;;6.45;4.80;;;;;;;14.21;73.60;96673.31;5116485;28;20469;-47
2021/05/24 00:45:22;;;;;;;6.30;5.00;;;;;;;14.18;73.02;96664.75;5116333;28;20106;-49
2021/05/24 00:47:48;;;;;;;5.22;4.72;;;;;;;14.11;73.92;96667.69;5116751;28;20077;-50
2021/05/24 00:50:14;;;;;;;9.35;5.30;;;;;;;14.02;74.35;96660.25;5116966;28;20027;-49
2021/05/24 00:52:40;;;;;;;5.38;4.85;;;;;;;13.99;74.35;96663.03;5116821;28;20048;-47
2021/05/24 00:55:08;;;;;;;6.00;4.47;;;;;;;14.02;74.39;96669.00;5116197;28;20381;-48
2021/05/24 00:57:34;;;;;;;6.10;4.70;;;;;;;14.04;74.18;96663.66;5116381;28;20449;-49
2021/05/24 01:00:00;;;;;;;8.95;5.65;;;;;;;13.95;74.79;96664.13;5116464;28;20023;-52
2021/05/24 01:02:25;;;;;;;5.57;4.78;;;;;;;13.95;74.75;96664.97;5116559;28;20020;-48
2021/05/24 01:04:54;;;;;;;8.90;4.93;;;;;;;14.00;74.48;96659.50;5116529;28;20072;-49
2021/05/24 01:07:20;;;;;;;10.68;4.72;;;;;;;14.02;74.46;96655.84;5116260;28;20019;-50
2021/05/24 01:09:45;;;;;;;7.60;4.85;;;;;;;14.02;74.19;96654.97;5115551;28;20477;-51
2021/05/24 01:12:11;;;;;;;6.00;4.80;;;;;;;13.98;73.90;96656.06;5116422;28;20024;-51
2021/05/24 01:14:37;;;;;;;7.38;5.20;;;;;;;13.93;74.28;96639.69;5116085;28;20023;-50
2021/05/24 01:17:03;;;;;;;8.85;5.50;;;;;;;13.93;74.15;96651.03;5116366;28;20016;-48
2021/05/24 01:19:29;;;;;;;7.00;5.00;;;;;;;13.94;73.99;96654.53;5116261;28;20035;-52
2021/05/24 01:21:55;;;;;;;5.38;4.47;;;;;;;13.93;73.43;96647.56;5115921;28;20031;-47
2021/05/24 01:24:21;;;;;;;5.28;4.85;;;;;;;13.88;73.50;96646.00;5115939;28;20019;-47
2021/05/24 01:26:47;;;;;;;8.18;4.75;;;;;;;13.82;73.70;96648.09;5115937;28;20024;-52
2021/05/24 01:29:19;;;;;;;5.68;5.03;;;;;;;13.79;73.95;96650.88;5116006;28;20034;-50
2021/05/24 01:31:47;;;;;;;7.60;4.70;;;;;;;13.72;73.99;96656.44;5115908;28;20106;-50
2021/05/24 01:34:13;;;;;;;5.75;4.40;;;;;;;13.67;73.83;96662.84;5115510;28;20453;-48
2021/05/24 01:36:39;;;;;;;5.28;4.88;;;;;;;13.62;73.82;96663.94;5115807;28;20067;-49
2021/05/24 01:39:06;;;;;;;5.70;5.20;;;;;;;13.61;74.17;96667.47;5115777;28;20027;-51
2021/05/24 01:41:32;;;;;;;8.57;5.75;;;;;;;13.62;74.46;96657.81;5115461;28;20031;-48
2021/05/24 01:43:57;;;;;;;6.70;5.43;;;;;;;13.62;74.94;96656.03;5115688;28;20016;-47
2021/05/24 01:46:23;;;;;;;6.13;5.28;;;;;;;13.59;75.37;96655.31;5115090;28;20020;-47
2021/05/24 01:48:48;;;;;;;10.90;6.63;;;;;;;13.49;75.78;96654.91;5115406;28;20160;-52
2021/05/24 01:51:14;;;;;;;7.70;5.75;;;;;;;13.49;75.21;96647.03;5114360;28;20381;-48
2021/05/24 01:53:40;;;;;;;5.82;5.22;;;;;;;13.50;74.67;96661.88;5115628;28;20016;-48
2021/05/24 01:56:06;;;;;;;6.10;5.50;;;;;;;13.51;74.78;96666.19;5115288;28;20038;-44
2021/05/24 01:58:32;;;;;;;10.00;5.82;;;;;;;13.51;75.11;96674.09;5125991;27;20418;-48
2021/05/24 02:01:09;;;;;;;15.07;6.95;;;;;;;13.53;75.30;96672.25;5136001;27;20027;-46
2021/05/24 02:03:36;;;;;;;7.93;6.22;;;;;;;13.56;75.21;96672.09;5135949;27;20053;-46
2021/05/24 02:06:03;;;;;;;7.80;6.30;;;;;;;13.57;75.54;96662.47;5131827;27;20016;-47
2021/05/24 02:08:30;;;;;;;8.32;6.45;;;;;;;13.51;76.49;96668.81;5115215;28;20023;-47
2021/05/24 02:10:56;;;;;;;6.80;6.15;;;;;;;13.51;76.42;96664.44;5115064;28;20347;-48
2021/05/24 02:13:22;;;;;;;6.68;6.07;;;;;;;13.52;75.94;96657.41;5115041;28;20028;-50
2021/05/24 02:15:47;;;;;;;6.53;5.82;;;;;;;13.46;76.14;96660.31;5114926;28;20042;-48
2021/05/24 02:18:14;;;;;;;9.20;6.32;;;;;;;13.44;76.18;96660.38;5113753;28;20074;-50
2021/05/24 02:20:39;;;;;;;6.45;5.80;;;;;;;13.46;75.72;96661.13;5114419;28;20520;-48
2021/05/24 02:23:07;;;;;;;8.25;5.80;;;;;;;13.47;75.23;96675.13;5114968;28;20050;-54
2021/05/24 02:25:33;;;;;;;6.70;6.10;;;;;;;13.45;74.97;96677.84;5114991;28;20039;-51
2021/05/24 02:27:59;;;;;;;7.20;6.25;;;;;;;13.41;75.13;96673.66;5115085;28;20058;-51
2021/05/24 02:30:26;;;;;;;8.48;6.20;;;;;;;13.42;74.93;96677.16;5114087;28;20020;-54
2021/05/24 02:32:51;;;;;;;9.55;7.72;;;;;;;13.40;75.88;96685.09;5114722;28;20024;-52
2021/05/24 02:35:19;;;;;;;8.43;6.70;;;;;;;13.40;76.51;96691.19;5114621;28;20050;-47
2021/05/24 02:37:46;;;;;;;9.75;7.10;;;;;;;13.42;77.00;96685.03;5114663;28;20016;-51
2021/05/24 02:40:13;;;;;;;9.48;6.28;;;;;;;13.45;76.00;96683.09;5114647;28;20106;-51
2021/05/24 02:42:39;;;;;;;9.73;6.20;;;;;;;13.41;75.71;96676.28;5114873;28;20023;-53
2021/05/24 02:45:08;;;;;;;11.35;6.80;;;;;;;13.42;75.92;96674.50;5115158;28;20098;-53
2021/05/24 02:47:34;;;;;;;7.90;6.18;;;;;;;13.42;76.22;96679.78;5114798;28;20031;-55
2021/05/24 02:50:00;;;;;;;9.00;6.50;;;;;;;13.38;76.72;96682.53;5114429;28;20030;-53
2021/05/24 02:52:26;;;;;;;8.70;6.00;;;;;;;13.36;75.41;96676.50;5114475;28;20031;-51
2021/05/24 02:54:51;;;;;;;8.52;6.07;;;;;;;13.37;76.42;96682.59;5113772;28;20036;-53
2021/05/24 02:57:17;;;;;;;7.95;6.60;;;;;;;13.33;75.47;96691.56;5114272;28;20050;-53
2021/05/24 02:59:43;;;;;;;7.07;6.38;;;;;;;13.31;75.63;96696.03;5114227;28;20026;-58
2021/05/24 03:02:12;;;;;;;6.65;5.93;;;;;;;13.36;75.75;96705.38;5114227;28;20052;-58
2021/05/24 03:04:38;;;;;;;6.15;5.63;;;;;;;13.39;75.34;96705.25;5114317;28;20035;-56
2021/05/24 03:07:05;;;;;;;7.63;6.22;;;;;;;13.45;75.34;96698.03;5113988;28;20020;-49
2021/05/24 03:09:31;;;;;;;8.27;6.22;;;;;;;13.43;76.19;96705.97;5114158;28;20081;-53
2021/05/24 03:11:57;;;;;;;10.80;5.38;;;;;;;13.45;75.32;96700.66;5114226;28;20034;-55
2021/05/24 03:14:23;;;;;;;7.85;6.00;;;;;;;13.48;75.65;96713.63;5114150;28;20099;-57
2021/05/24 03:16:48;;;;;;;8.52;5.78;;;;;;;13.49;77.01;96725.84;5114111;28;20107;-55
2021/05/24 03:19:15;;;;;;;7.68;6.25;;;;;;;13.50;76.91;96732.84;5113542;28;20034;-56
2021/05/24 03:21:43;;;;;;;8.45;6.43;;;;;;;13.55;76.65;96730.84;5113845;28;20481;-50
2021/05/24 03:24:09;;;;;;;6.97;6.13;;;;;;;13.59;77.35;96742.91;5113741;28;20031;-55
2021/05/24 03:26:35;;;;;;;10.07;6.38;;;;;;;13.72;77.21;96734.44;5114070;28;20035;-55
2021/05/24 03:29:02;;;;;;;11.63;6.07;;;;;;;13.84;76.44;96736.50;5114133;28;20077;-54
2021/05/24 03:31:27;;;;;;;6.72;6.10;;;;;;;14.01;76.91;96748.84;5113427;28;20051;-57
2021/05/24 03:33:53;;;;;;;7.03;6.35;;;;;;;14.20;75.78;96754.94;5113790;28;20034;-53
2021/05/24 03:36:19;;;;;;;8.00;6.53;;;;;;;14.37;76.25;96759.38;5113528;28;20055;-50
2021/05/24 03:38:45;;;;;;;7.97;7.00;;;;;;;14.67;75.88;96769.28;5113627;28;20528;-55
2021/05/24 03:41:11;;;;;;;7.70;5.80;;;;;;;15.02;74.60;96778.97;5113751;28;20098;-52
2021/05/24 03:43:36;;;;;;;7.72;5.50;;;;;;;15.29;72.80;96776.66;5113949;28;20028;-53
2021/05/24 03:46:02;;;;;;;7.60;5.85;;;;;;;15.57;72.28;96786.66;5113793;28;20051;-55
2021/05/24 03:48:28;;;;;;;6.00;5.07;;;;;;;15.85;71.67;96790.41;5113723;28;20027;-52
2021/05/24 03:50:54;;;;;;;7.68;5.07;;;;;;;16.15;71.05;96789.66;5112850;28;20024;-52
2021/05/24 03:53:19;;;;;;;7.38;5.10;;;;;;;16.52;70.13;96799.88;5113425;28;20019;-54
2021/05/24 03:55:45;;;;;;;8.25;4.53;;;;;;;16.83;68.72;96792.81;5113907;28;20020;-58
2021/05/24 03:58:11;;;;;;;5.82;4.18;;;;;;;17.13;67.77;96794.56;5113589;28;20095;-51
2021/05/24 04:00:36;;;;;;;4.97;4.47;;;;;;;17.43;66.96;96798.09;5113473;28;20373;-56
2021/05/24 04:03:03;;;;;;;10.25;3.83;;;;;;;17.75;66.37;96804.94;5111709;28;20138;-48
2021/05/24 04:05:36;;;;;;;4.85;4.35;;;;;;;18.06;66.77;96805.63;5113719;28;20024;-50
2021/05/24 04:08:04;;;;;;;4.53;3.63;;;;;;;18.37;65.65;96803.69;5113481;28;20035;-51
2021/05/24 04:10:36;;;;;;;4.18;3.78;;;;;;;18.63;64.96;96801.09;5113547;28;20027;-53
2021/05/24 04:13:03;;;;;;;4.50;3.83;;;;;;;18.96;63.95;96806.03;5113507;28;20081;-47
2021/05/24 04:15:29;;;;;;;7.60;3.70;;;;;;;19.14;63.78;96803.97;5113029;28;20183;-51
2021/05/24 04:17:58;;;;;;;5.50;3.85;;;;;;;19.51;62.12;96800.53;5113676;28;20019;-55
2021/05/24 04:20:24;;;;;;;6.18;3.40;;;;;;;19.92;60.66;96803.84;5113304;28;20093;-55
2021/05/24 04:22:50;;;;;;;4.68;2.47;;;;;;;20.33;57.24;96805.34;5113453;28;20407;-52
2021/05/24 04:25:16;;;;;;;9.02;3.13;;;;;;;20.78;57.96;96818.91;5113565;28;20027;-56
2021/05/24 04:27:42;;;;;;;4.75;2.67;;;;;;;21.18;53.45;96815.03;5112669;28;20032;-56
2021/05/24 04:30:09;;;;;;;7.85;2.78;;;;;;;21.61;53.41;96821.47;5113052;28;20472;-55
2021/05/24 04:32:35;;;;;;;6.60;2.30;;;;;;;21.98;51.77;96812.44;5113216;28;20055;-50
2021/05/24 04:35:01;;;;;;;5.90;2.90;;;;;;;22.40;53.76;96817.06;5112706;28;20075;-53
2021/05/24 04:37:27;;;;;;;6.03;2.50;;;;;;;22.78;51.36;96812.19;5113107;28;20541;-52
2021/05/24 04:39:53;;;;;;;7.57;2.70;;;;;;;23.09;49.89;96822.94;5112828;28;20028;-48
2021/05/24 04:42:21;;;;;;;11.32;2.65;;;;;;;23.48;49.64;96824.19;5113873;28;20031;-54
2021/05/24 04:44:46;;;;;;;3.33;2.40;;;;;;;23.75;47.48;96824.56;5116810;28;20027;-55
2021/05/24 04:47:12;;;;;;;5.82;2.47;;;;;;;24.02;46.82;96825.78;5116668;28;20027;-51
2021/05/24 04:49:37;;;;;;;6.13;2.70;;;;;;;24.27;48.21;96832.50;5116321;28;20106;-51
2021/05/24 04:52:03;;;;;;;5.88;2.67;;;;;;;24.46;47.45;96831.66;5116712;28;20028;-60
2021/05/24 04:54:29;;;;;;;5.47;2.70;;;;;;;24.80;49.33;96834.94;5116785;28;20461;-50
2021/05/24 04:56:55;;;;;;;4.80;3.08;;;;;;;24.92;48.28;96843.69;5116633;28;20052;-48
2021/05/24 04:59:21;;;;;;;9.57;3.28;;;;;;;25.06;48.61;96845.06;5116429;28;20016;-52
2021/05/24 05:01:47;;;;;;;7.00;2.65;;;;;;;25.12;47.04;96852.53;5126888;27;20011;-44
2021/05/24 05:04:15;;;;;;;10.13;2.90;;;;;;;25.38;48.57;96859.94;5129177;27;20019;-46
2021/05/24 05:06:41;;;;;;;6.85;2.50;;;;;;;25.45;41.76;96874.44;5136879;27;20135;-47
2021/05/24 05:09:07;;;;;;;3.75;2.35;;;;;;;25.41;42.14;96878.41;5126724;27;20015;-48
2021/05/24 05:11:32;;;;;;;6.72;2.28;;;;;;;25.68;43.02;96873.28;5109110;27;20020;-44
2021/05/24 05:13:58;;;;;;;4.45;1.98;;;;;;;25.77;41.86;96882.28;5115749;28;20027;-47
2021/05/24 05:16:23;;;;;;;3.60;1.90;;;;;;;25.94;40.57;96886.84;5095681;28;20020;-45
2021/05/24 05:18:49;;;;;;;4.28;2.05;;;;;;;25.86;40.89;96890.28;5095812;28;20028;-55
2021/05/24 05:21:16;;;;;;;11.20;2.20;;;;;;;26.04;40.07;96881.47;5094286;28;20027;-56
2021/05/24 05:23:42;;;;;;;11.25;2.42;;;;;;;25.97;41.26;96881.22;5097128;27;20019;-52
2021/05/24 05:26:13;;;;;;;3.90;2.08;;;;;;;26.07;40.25;96891.88;5115452;27;20019;-51
2021/05/24 05:28:39;;;;;;;12.15;2.70;;;;;;;26.15;42.01;96888.47;5115864;28;20061;-53
2021/05/24 05:31:06;;;;;;;13.50;2.70;;;;;;;26.23;39.89;96891.25;5115637;28;20101;-54
2021/05/24 05:33:32;;;;;;;8.90;2.30;;;;;;;26.08;40.29;96880.19;5114779;28;20423;-53
2021/05/24 05:35:58;;;;;;;9.70;2.35;;;;;;;26.10;40.24;96869.31;5115345;28;20050;-54
2021/05/24 05:38:26;;;;;;;8.88;1.80;;;;;;;26.18;40.28;96879.25;5115283;28;20030;-54
2021/05/24 05:40:52;;;;;;;9.48;2.25;;;;;;;26.28;39.55;96877.41;5115730;28;20369;-65
2021/05/24 05:43:19;;;;;;;8.35;1.92;;;;;;;26.41;39.20;96879.75;5115294;28;20487;-65
2021/05/24 05:45:45;;;;;;;4.75;1.98;;;;;;;26.29;40.03;96886.28;5114591;28;20508;-66
2021/05/24 05:48:11;;;;;;;9.75;2.20;;;;;;;26.46;39.69;96893.53;5115507;28;20541;-65
2021/05/24 05:50:37;;;;;;;4.95;1.85;;;;;;;26.53;39.12;96892.94;5115554;28;20381;-66
2021/05/24 05:53:04;;;;;;;6.75;1.85;;;;;;;26.69;39.60;96892.25;5115631;28;20016;-65
2021/05/24 05:55:30;;;;;;;9.50;2.60;;;;;;;26.79;41.90;96898.41;5113834;28;20031;-65
2021/05/24 05:57:56;;;;;;;7.38;1.98;;;;;;;26.92;38.02;96902.53;5115283;28;20027;-66
2021/05/24 06:00:22;;;;;;;8.02;2.05;;;;;;;26.95;39.27;96896.88;5115395;28;20355;-65
2021/05/24 06:02:47;;;;;;;5.25;2.13;;;;;;;27.16;37.34;96901.13;5115144;28;20031;-65
2021/05/24 06:05:13;;;;;;;6.65;2.30;;;;;;;27.29;39.28;96906.94;5115300;28;20023;-65
2021/05/24 06:07:40;;;;;;;5.63;1.67;;;;;;;27.62;37.83;96915.22;5113036;28;20059;-66
2021/05/24 06:10:08;;;;;;;3.05;1.80;;;;;;;27.75;37.90;96908.59;5114763;28;20031;-66
2021/05/24 06:12:33;;;;;;;7.43;1.98;;;;;;;27.90;38.34;96918.78;5114986;28;20392;-65
2021/05/24 06:14:59;;;;;;;4.03;1.83;;;;;;;28.17;37.15;96923.13;5114946;28;20106;-65
2021/05/24 06:17:25;;;;;;;4.53;1.90;;;;;;;28.38;37.36;96911.13;5115153;28;20526;-65
2021/05/24 06:19:51;;;;;;;6.65;2.00;;;;;;;28.57;38.65;96912.72;5114687;28;20032;-65
2021/05/24 06:22:17;;;;;;;4.78;1.85;;;;;;;28.59;36.65;96905.31;5114771;28;20126;-65
2021/05/24 06:24:43;;;;;;;4.75;1.45;;;;;;;28.79;35.63;96910.41;5114872;28;20063;-66
2021/05/24 06:27:09;;;;;;;6.43;2.10;;;;;;;28.75;36.69;96917.97;5114828;28;20030;-67
2021/05/24 06:29:34;;;;;;;4.28;2.00;;;;;;;28.58;34.85;96905.47;5114905;28;20102;-65
2021/05/24 06:32:00;;;;;;;3.63;1.73;;;;;;;28.36;36.42;96918.53;5114577;28;20090;-65
2021/05/24 06:34:26;;;;;;;4.88;1.90;;;;;;;28.50;36.19;96920.59;5114026;28;20076;-65
2021/05/24 06:36:52;;;;;;;8.27;1.77;;;;;;;28.60;36.59;96923.13;5114613;28;20102;-64
2021/05/24 06:39:18;;;;;;;5.07;2.25;;;;;;;28.70;36.57;96925.69;5114760;28;20032;-65
2021/05/24 06:41:45;;;;;;;5.68;1.73;;;;;;;29.07;35.41;96928.16;5114487;28;20054;-65
2021/05/24 06:44:10;;;;;;;4.97;1.95;;;;;;;29.25;36.92;96927.97;5113491;28;20031;-65
2021/05/24 06:46:36;;;;;;;5.28;1.92;;;;;;;29.27;34.30;96920.59;5113883;28;20058;-65
2021/05/24 06:49:02;;;;;;;9.32;2.00;;;;;;;29.41;34.73;96923.63;5114572;28;20076;-65
2021/05/24 06:51:28;;;;;;;4.85;2.03;;;;;;;29.66;35.77;96918.22;5114537;28;20026;-65
2021/05/24 06:53:53;;;;;;;6.28;1.90;;;;;;;29.81;35.27;96923.75;5109921;28;20031;-66
2021/05/24 06:56:20;;;;;;;6.85;2.28;;;;;;;29.96;34.92;96934.69;5112163;27;20032;-62
2021/05/24 06:58:46;;;;;;;9.07;2.30;;;;;;;29.97;34.22;96931.81;5130545;27;20023;-62
2021/05/24 07:01:12;;;;;;;5.97;2.13;;;;;;;30.10;33.47;96930.44;5114657;27;20028;-62
2021/05/24 07:03:38;;;;;;;4.45;1.80;;;;;;;30.19;33.96;96934.78;5113513;28;20023;-62
2021/05/24 07:06:04;;;;;;;7.10;1.98;;;;;;;30.23;33.80;96927.22;5113656;28;20107;-62
2021/05/24 07:08:30;;;;;;;11.18;2.05;;;;;;;30.43;34.42;96943.81;5114291;28;20073;-62
2021/05/24 07:10:55;;;;;;;8.98;2.20;;;;;;;30.38;34.93;96947.06;5114172;28;20035;-61
2021/05/24 07:13:21;;;;;;;4.88;2.30;;;;;;;30.45;35.19;96947.19;5099609;28;20024;-60
2021/05/24 07:15:47;;;;;;;6.88;2.10;;;;;;;30.75;34.88;96949.22;5100924;28;20028;-61
2021/05/24 07:18:12;;;;;;;4.63;2.17;;;;;;;30.81;32.49;96955.78;5113536;28;20030;-60
2021/05/24 07:20:38;;;;;;;5.20;1.88;;;;;;;30.77;33.54;96958.88;5114058;28;20053;-62
2021/05/24 07:23:04;;;;;;;4.93;1.80;;;;;;;30.75;33.66;96952.78;5113412;28;20015;-64
2021/05/24 07:25:30;;;;;;;5.93;1.92;;;;;;;30.84;33.02;96958.16;5113124;28;20047;-64
2021/05/24 07:27:55;;;;;;;4.18;1.60;;;;;;;30.88;32.57;96954.09;5113659;28;20046;-65
2021/05/24 07:30:21;;;;;;;4.13;1.92;;;;;;;30.91;33.98;96961.00;5113991;28;20037;-65
2021/05/24 07:32:47;;;;;;;3.13;1.73;;;;;;;30.66;32.74;96961.94;5113564;28;20027;-65
2021/05/24 07:35:13;;;;;;;4.57;1.80;;;;;;;30.50;33.68;96966.41;5113159;28;20071;-65
2021/05/24 07:37:39;;;;;;;6.95;2.00;;;;;;;30.00;34.08;96971.91;5113648;28;20016;-64
2021/05/24 07:40:08;;;;;;;10.05;2.50;;;;;;;30.02;34.95;96974.44;5112391;28;20035;-64
2021/05/24 07:42:34;;;;;;;5.07;2.20;;;;;;;30.33;35.10;96976.41;5112836;28;20016;-65
2021/05/24 07:45:00;;;;;;;7.50;2.30;;;;;;;30.71;35.60;96975.75;5113459;28;20027;-64
2021/05/24 07:47:26;;;;;;;4.07;1.90;;;;;;;30.46;36.87;96986.63;5114731;28;20020;-60
2021/05/24 07:49:52;;;;;;;8.80;2.08;;;;;;;29.54;36.69;96971.59;5114008;28;20412;-63
2021/05/24 07:52:18;;;;;;;4.32;1.80;;;;;;;28.91;35.87;96977.38;5113700;28;20034;-63
2021/05/24 07:54:44;;;;;;;7.53;1.95;;;;;;;28.61;36.84;96967.03;5113536;28;20023;-63
2021/05/24 07:57:10;;;;;;;8.18;1.70;;;;;;;28.67;36.69;96966.38;5113715;28;20020;-63
2021/05/24 07:59:36;;;;;;;4.03;1.90;;;;;;;28.69;38.14;96968.91;5114223;28;20096;-64
2021/05/24 08:02:03;;;;;;;4.70;1.60;;;;;;;28.41;35.35;96971.84;5114025;28;20032;-64
2021/05/24 08:04:29;;;;;;;3.63;1.45;;;;;;;28.56;38.06;96980.97;5116014;28;20784;-64
2021/05/24 08:06:56;;;;;;;4.60;1.88;;;;;;;28.47;34.88;96976.56;5133917;27;20024;-63
2021/05/24 08:09:22;;;;;;;13.10;2.85;;;;;;;28.36;36.44;96978.53;5133950;27;20110;-63
2021/05/24 08:11:50;;;;;;;5.70;2.10;;;;;;;28.40;36.79;96976.38;5133874;27;20024;-63
2021/05/24 08:14:16;;;;;;;6.93;1.98;;;;;;;28.30;37.34;96991.78;5134250;27;20015;-64
2021/05/24 08:16:43;;;;;;;3.90;1.85;;;;;;;27.97;37.22;96974.44;5136197;27;20570;-64
2021/05/24 08:19:08;;;;;;;3.58;1.90;;;;;;;27.61;36.66;96966.44;5119139;27;20389;-63
2021/05/24 08:21:34;;;;;;;3.58;1.85;;;;;;;27.79;35.51;96971.78;5119120;28;20034;-63
2021/05/24 08:24:00;;;;;;;8.77;2.15;;;;;;;28.02;37.58;96973.13;5117780;28;20096;-64
2021/05/24 08:26:26;;;;;;;21.65;2.95;;;;;;;28.17;35.85;96984.94;5117977;28;20028;-65
2021/05/24 08:28:51;;;;;;;5.28;2.25;;;;;;;28.22;35.98;96987.16;5119543;28;20028;-64
2021/05/24 08:31:17;;;;;;;6.45;2.05;;;;;;;28.13;37.13;96978.22;5114986;28;20019;-64
2021/05/24 08:33:43;;;;;;;6.03;1.88;;;;;;;28.04;35.61;96982.69;5114094;28;20395;-64
2021/05/24 08:36:08;;;;;;;7.60;2.47;;;;;;;28.15;37.52;96975.38;5114220;28;20073;-62
2021/05/24 08:38:34;;;;;;;9.55;2.00;;;;;;;28.19;37.52;96987.47;5117453;28;20499;-62
2021/05/24 08:41:07;;;;;;;9.43;2.55;;;;;;;28.60;35.08;96998.47;5114462;28;20059;-60
2021/05/24 08:43:37;;;;;;;6.78;2.40;;;;;;;28.51;35.80;96988.69;5120413;28;20024;-65
2021/05/24 08:46:03;;;;;;;6.93;2.15;;;;;;;28.83;35.58;96991.66;5115460;28;20042;-65
2021/05/24 08:48:29;;;;;;;4.10;1.55;;;;;;;28.96;35.06;96988.53;5116895;28;20027;-61
2021/05/24 08:50:56;;;;;;;10.05;2.17;;;;;;;29.18;33.97;96978.97;5116760;28;20020;-62
2021/05/24 08:53:22;;;;;;;6.68;2.28;;;;;;;29.37;34.90;96980.50;5116716;28;20018;-62
2021/05/24 08:55:48;;;;;;;7.22;2.00;;;;;;;29.38;34.16;96975.97;5116653;27;20106;-59
2021/05/24 08:58:14;;;;;;;8.07;2.20;;;;;;;29.51;33.61;96978.16;5116453;28;20031;-60
2021/05/24 09:00:40;;;;;;;3.42;1.95;;;;;;;29.69;33.97;96991.50;5116551;28;20035;-60
2021/05/24 09:03:16;;;;;;;13.75;2.58;;;;;;;29.75;34.85;96989.97;5116756;28;20026;-63
2021/05/24 09:05:42;;;;;;;5.13;2.08;;;;;;;30.07;33.54;96988.22;5117015;28;20024;-60
2021/05/24 09:08:07;;;;;;;5.32;2.13;;;;;;;30.29;32.62;96985.84;5115882;28;20030;-59
2021/05/24 09:10:35;;;;;;;6.78;2.50;;;;;;;30.33;33.57;96979.09;5116276;28;20019;-60
2021/05/24 09:13:18;;;;;;;9.90;2.10;;;;;;;30.46;31.46;96983.94;5116331;28;20028;-65
2021/05/24 09:15:46;;;;;;;9.48;2.25;;;;;;;30.24;31.98;96980.97;5115929;28;20510;-63
2021/05/24 09:18:13;;;;;;;5.28;2.15;;;;;;;30.16;31.10;96981.00;5116252;28;20099;-63
2021/05/24 09:20:42;;;;;;;5.65;2.10;;;;;;;30.39;31.71;96970.31;5116001;28;20110;-63
2021/05/24 09:23:15;;;;;;;12.05;2.58;;;;;;;30.55;33.61;96971.25;5116591;28;20024;-64
2021/05/24 09:25:56;;;;;;;3.53;1.90;;;;;;;30.46;32.87;96965.03;5116638;28;20419;-66
2021/05/24 09:28:39;;;;;;;7.85;2.05;;;;;;;30.16;30.60;96970.22;5115540;28;20116;-62
2021/05/24 09:31:18;;;;;;;3.67;1.65;;;;;;;30.12;32.70;96974.22;5115870;28;20485;-62
2021/05/24 09:33:50;;;;;;;7.70;2.00;;;;;;;30.01;33.21;96962.78;5107066;27;20389;-61
2021/05/24 09:36:16;;;;;;;6.88;2.30;;;;;;;30.04;33.56;96967.03;5095607;28;20383;-61
2021/05/24 09:38:44;;;;;;;7.38;2.30;;;;;;;30.31;32.02;96982.97;5115722;28;20544;-62
2021/05/24 09:41:12;;;;;;;8.82;2.00;;;;;;;30.49;31.65;96996.25;5115466;28;20044;-61
2021/05/24 09:43:43;;;;;;;7.60;1.95;;;;;;;30.34;30.96;96985.34;5115723;28;20228;-62
2021/05/24 09:46:14;;;;;;;7.72;1.80;;;;;;;30.38;32.32;96989.38;5115653;28;20016;-59
2021/05/24 09:48:41;;;;;;;8.05;2.10;;;;;;;30.19;30.70;96979.81;5114871;28;20016;-61
2021/05/24 09:51:10;;;;;;;7.43;1.98;;;;;;;29.92;31.61;96979.16;5115182;28;20035;-62
2021/05/24 09:53:36;;;;;;;15.93;2.15;;;;;;;30.05;32.36;96982.19;5115304;28;20031;-61
2021/05/24 09:56:15;;;;;;;6.88;2.10;;;;;;;30.06;32.71;96978.47;5115220;28;20121;-61
2021/05/24 09:58:41;;;;;;;5.90;1.98;;;;;;;30.09;31.13;96977.25;5115487;28;20486;-63
2021/05/24 10:01:17;;;;;;;9.45;1.80;;;;;;;30.04;32.03;96971.56;5114046;28;20062;-62
2021/05/24 10:03:45;;;;;;;6.50;2.00;;;;;;;30.05;33.65;96976.78;5114939;28;20032;-62
2021/05/24 10:06:12;;;;;;;5.30;2.03;;;;;;;30.06;30.60;96973.06;5115184;28;20381;-60
2021/05/24 10:08:40;;;;;;;7.72;1.92;;;;;;;30.12;33.61;96972.38;5115243;28;20024;-61
2021/05/24 10:11:07;;;;;;;2.25;1.55;;;;;;;30.13;32.02;96976.75;5115234;28;20019;-63
2021/05/24 10:13:33;;;;;;;10.85;2.60;;;;;;;30.02;33.39;96969.03;5114928;28;20038;-62
2021/05/24 10:16:04;;;;;;;7.30;2.40;;;;;;;30.17;31.80;96966.50;5114404;28;20084;-61
2021/05/24 10:18:31;;;;;;;8.27;2.58;;;;;;;30.20;30.58;96968.00;5115104;27;20451;-61
2021/05/24 10:20:59;;;;;;;5.68;2.15;;;;;;;30.52;30.95;96964.34;5115003;28;20415;-64
2021/05/24 10:23:29;;;;;;;4.18;1.80;;;;;;;30.61;32.01;96967.03;5114444;28;20024;-61
2021/05/24 10:25:58;;;;;;;5.32;1.98;;;;;;;30.58;33.25;96964.69;5114735;28;20098;-60
2021/05/24 10:28:26;;;;;;;10.23;2.08;;;;;;;30.61;33.56;96962.44;5114277;28;20039;-63
2021/05/24 10:30:52;;;;;;;7.47;1.73;;;;;;;30.57;32.45;96958.44;5114785;28;20091;-63
2021/05/24 10:33:20;;;;;;;6.40;2.20;;;;;;;30.61;30.26;96959.75;5114763;28;20100;-60
2021/05/24 10:35:47;;;;;;;9.18;1.92;;;;;;;30.71;34.68;96959.56;5114325;28;20048;-63
2021/05/24 10:38:33;;;;;;;10.30;2.05;;;;;;;30.71;30.56;96967.66;5114179;28;20020;-63
2021/05/24 10:41:09;;;;;;;7.35;2.20;;;;;;;30.71;31.92;96959.56;5113693;28;20412;-61
2021/05/24 10:43:39;;;;;;;11.35;1.77;;;;;;;30.58;29.81;96960.09;5114663;28;20411;-60
2021/05/24 10:46:30;;;;;;;8.88;2.20;;;;;;;30.47;31.54;96955.09;5114555;28;20495;-63
2021/05/24 10:48:57;;;;;;;9.25;2.00;;;;;;;30.69;30.31;96948.09;5105110;28;20062;-63
2021/05/24 10:51:45;;;;;;;10.35;2.45;;;;;;;30.77;29.39;96953.47;5114128;28;20081;-63
2021/05/24 10:54:33;;;;;;;6.00;2.00;;;;;;;30.45;31.31;96946.34;5114281;28;20028;-61
2021/05/24 10:56:59;;;;;;;5.13;2.17;;;;;;;30.22;29.57;96941.72;5107154;28;20497;-62
2021/05/24 11:02:16;;;;;;;6.88;2.00;;;;;;;30.32;30.81;96938.81;5114211;28;20069;-61
2021/05/24 11:04:56;;;;;;;6.63;1.77;;;;;;;30.47;31.26;96937.06;5112895;28;20039;-62
2021/05/24 11:07:44;;;;;;;5.60;2.10;;;;;;;30.37;30.33;96929.16;5113998;28;20031;-64
2021/05/24 11:10:19;;;;;;;7.38;2.15;;;;;;;30.28;32.44;96935.63;5114050;28;20024;-64
2021/05/24 11:13:16;;;;;;;4.63;2.03;;;;;;;30.05;31.54;96930.09;5114115;28;20020;-65
2021/05/24 11:15:43;;;;;;;7.30;1.85;;;;;;;30.01;31.67;96927.75;5113305;28;20042;-64
2021/05/24 11:18:17;;;;;;;3.65;1.92;;;;;;;29.94;32.22;96934.84;5114000;28;20088;-63
2021/05/24 11:21:03;;;;;;;6.57;2.00;;;;;;;29.78;31.77;96930.34;5114040;28;20019;-64
2021/05/24 11:26:12;;;;;;;8.40;2.25;;;;;;;29.16;32.43;96926.31;5113669;28;20457;-61
2021/05/24 11:28:40;;;;;;;6.50;2.22;;;;;;;29.17;33.55;96923.47;5113862;28;20027;-60
2021/05/24 11:31:18;;;;;;;4.50;2.45;;;;;;;29.12;33.62;96918.56;5113964;28;20016;-62
2021/05/24 11:33:49;;;;;;;4.50;2.03;;;;;;;29.03;35.43;96921.41;5113776;28;20051;-60
2021/05/24 11:36:28;;;;;;;7.00;2.42;;;;;;;29.08;34.81;96922.56;5120248;27;20052;-62
2021/05/24 11:39:12;;;;;;;6.15;1.92;;;;;;;29.12;34.55;96929.34;5113622;28;20028;-63